createdAt,value
2022-08-27T00:02:42.211Z,0.40
2022-08-27T00:05:29.001Z,0.73
2022-08-27T00:08:16.043Z,0.88
2022-08-27T00:11:02.986Z,0.80
2022-08-27T00:13:50.117Z,0.73
2022-08-27T00:16:38.135Z,0.88
2022-08-27T00:19:25.321Z,1.47
2022-08-27T00:22:13.357Z,1.00
2022-08-27T00:25:00.259Z,1.03
2022-08-27T00:27:47.265Z,0.90
2022-08-27T00:30:34.181Z,0.88
2022-08-27T00:33:22.397Z,0.50
2022-08-27T00:36:09.654Z,0.75
2022-08-27T00:38:56.455Z,0.80
2022-08-27T00:41:43.589Z,0.95
2022-08-27T00:44:31.872Z,0.90
2022-08-27T00:47:19.954Z,0.65
2022-08-27T00:50:10.797Z,1.38
2022-08-27T00:52:59.102Z,1.17
2022-08-27T00:55:50.793Z,0.93
2022-08-27T00:58:38.531Z,0.93
2022-08-27T01:01:26.655Z,0.90
2022-08-27T01:04:13.741Z,1.25
2022-08-27T01:07:01.932Z,1.08
2022-08-27T01:09:50.131Z,0.75
2022-08-27T01:12:38.363Z,1.33
2022-08-27T01:15:27.092Z,1.10
2022-08-27T01:18:14.855Z,1.25
2022-08-27T01:21:05.643Z,1.27
2022-08-27T01:23:55.985Z,1.02
2022-08-27T01:26:44.400Z,0.93
2022-08-27T01:29:31.614Z,1.17
2022-08-27T01:32:20.694Z,0.98
2022-08-27T01:35:10.521Z,0.82
2022-08-27T01:37:57.425Z,1.23
2022-08-27T01:40:44.340Z,0.98
2022-08-27T01:43:33.686Z,1.35
2022-08-27T01:46:22.324Z,0.97
2022-08-27T01:49:11.081Z,1.02
2022-08-27T01:51:57.996Z,0.82
2022-08-27T01:54:44.570Z,1.23
2022-08-27T01:57:32.387Z,1.10
2022-08-27T02:00:22.057Z,1.00
2022-08-27T02:03:09.610Z,1.15
2022-08-27T02:05:56.641Z,1.30
2022-08-27T02:08:43.482Z,1.10
2022-08-27T02:11:30.432Z,0.95
2022-08-27T02:14:17.518Z,1.10
2022-08-27T02:17:05.681Z,0.90
2022-08-27T02:19:53.285Z,1.08
2022-08-27T02:22:40.383Z,1.10
2022-08-27T02:25:28.881Z,1.20
2022-08-27T02:28:18.386Z,1.50
2022-08-27T02:31:05.275Z,1.30
2022-08-27T02:33:54.646Z,0.90
2022-08-27T02:36:41.488Z,1.47
2022-08-27T02:39:28.264Z,1.17
2022-08-27T02:42:15.502Z,0.82
2022-08-27T02:45:02.127Z,1.40
2022-08-27T02:47:49.164Z,1.30
2022-08-27T02:50:37.778Z,1.50
2022-08-27T02:53:24.636Z,1.77
2022-08-27T02:56:11.930Z,1.55
2022-08-27T02:58:59.167Z,1.10
2022-08-27T03:01:45.914Z,1.00
2022-08-27T03:04:32.756Z,1.40
2022-08-27T03:07:24.180Z,1.17
2022-08-27T03:10:11.972Z,1.10
2022-08-27T03:12:58.599Z,1.60
2022-08-27T03:15:45.333Z,1.20
2022-08-27T03:18:32.905Z,1.13
2022-08-27T03:21:20.635Z,0.85
2022-08-27T03:24:11.555Z,1.45
2022-08-27T03:26:59.144Z,1.10
2022-08-27T03:29:45.864Z,0.93
2022-08-27T03:32:32.785Z,1.13
2022-08-27T03:35:20.433Z,1.20
2022-08-27T03:38:07.352Z,0.80
2022-08-27T03:40:56.212Z,1.33
2022-08-27T03:43:42.957Z,1.40
2022-08-27T03:46:30.961Z,0.97
2022-08-27T03:49:20.214Z,1.85
2022-08-27T03:52:07.406Z,1.75
2022-08-27T03:54:54.509Z,1.70
2022-08-27T03:57:42.853Z,1.17
2022-08-27T04:00:29.788Z,1.38
2022-08-27T04:03:16.958Z,1.17
2022-08-27T04:06:04.061Z,1.20
2022-08-27T04:08:50.748Z,1.37
2022-08-27T04:11:37.386Z,1.27
2022-08-27T04:14:27.237Z,1.38
2022-08-27T04:17:14.549Z,1.87
2022-08-27T04:20:18.715Z,1.45
2022-08-27T04:23:09.359Z,1.00
2022-08-27T04:25:56.167Z,0.93
2022-08-27T04:28:46.672Z,0.88
2022-08-27T04:31:36.851Z,1.30
2022-08-27T04:34:23.914Z,1.92
2022-08-27T04:37:10.907Z,1.40
2022-08-27T04:39:57.590Z,1.33
2022-08-27T04:42:45.487Z,1.02
2022-08-27T04:45:32.110Z,1.20
2022-08-27T04:48:21.730Z,1.20
2022-08-27T04:51:08.538Z,1.80
2022-08-27T04:54:01.021Z,1.10
2022-08-27T04:56:48.322Z,1.30
2022-08-27T04:59:35.434Z,0.55
2022-08-27T05:02:22.032Z,1.58
2022-08-27T05:05:15.458Z,1.10
2022-08-27T05:08:02.864Z,1.73
2022-08-27T05:10:50.609Z,1.00
2022-08-27T05:13:37.972Z,1.00
2022-08-27T05:16:24.960Z,1.95
2022-08-27T05:19:14.604Z,1.63
2022-08-27T05:22:02.905Z,1.63
2022-08-27T05:24:50.151Z,1.10
2022-08-27T05:27:37.332Z,0.77
2022-08-27T05:30:24.324Z,1.25
2022-08-27T05:33:11.273Z,1.90
2022-08-27T05:35:58.933Z,1.20
2022-08-27T05:38:49.298Z,1.43
2022-08-27T05:41:37.165Z,1.08
2022-08-27T05:47:31.103Z,1.10
2022-08-27T05:50:24.436Z,1.05
2022-08-27T05:53:11.910Z,1.00
2022-08-27T05:56:00.533Z,1.52
2022-08-27T05:59:05.573Z,1.02
2022-08-27T06:01:54.185Z,1.17
2022-08-27T06:04:41.561Z,0.80
2022-08-27T06:07:29.820Z,1.00
2022-08-27T06:10:16.781Z,0.80
2022-08-27T06:13:05.138Z,1.00
2022-08-27T06:15:52.145Z,0.85
2022-08-27T06:18:39.863Z,0.68
2022-08-27T06:21:26.857Z,1.08
2022-08-27T06:24:14.466Z,1.05
2022-08-27T06:27:01.396Z,0.70
2022-08-27T06:29:49.441Z,0.90
2022-08-27T06:32:36.482Z,0.90
2022-08-27T06:35:23.100Z,0.82
2022-08-27T06:38:10.048Z,0.80
2022-08-27T06:40:58.134Z,0.98
2022-08-27T06:43:45.299Z,1.00
2022-08-27T06:46:33.236Z,0.90
2022-08-27T06:49:20.310Z,1.17
2022-08-27T06:52:07.321Z,0.75
2022-08-27T06:54:56.611Z,1.08
2022-08-27T06:57:43.578Z,0.77
2022-08-27T07:00:31.229Z,1.10
2022-08-27T07:03:19.722Z,0.80
2022-08-27T07:06:07.600Z,1.40
2022-08-27T07:08:54.440Z,0.73
2022-08-27T07:11:41.480Z,0.80
2022-08-27T07:14:28.290Z,0.70
2022-08-27T07:17:17.018Z,1.17
2022-08-27T07:20:05.677Z,1.25
2022-08-27T07:22:54.129Z,1.90
2022-08-27T07:25:42.557Z,1.05
2022-08-27T07:28:29.934Z,0.50
2022-08-27T07:31:18.448Z,0.45
2022-08-27T07:34:05.854Z,0.80
2022-08-27T07:36:54.430Z,0.70
2022-08-27T07:39:41.153Z,1.30
2022-08-27T07:42:45.650Z,0.50
2022-08-27T07:45:32.428Z,0.73
2022-08-27T07:48:19.349Z,0.53
2022-08-27T07:51:06.489Z,0.40
2022-08-27T07:53:54.749Z,0.80
2022-08-27T07:56:41.571Z,1.10
2022-08-27T07:59:28.641Z,0.55
2022-08-27T08:02:15.439Z,0.75
2022-08-27T08:05:02.734Z,0.55
2022-08-27T08:07:50.625Z,0.60
2022-08-27T08:10:39.242Z,0.45
2022-08-27T08:13:26.405Z,0.70
2022-08-27T08:16:13.093Z,0.63
2022-08-27T08:19:00.420Z,0.50
2022-08-27T08:21:47.418Z,0.90
2022-08-27T08:24:35.030Z,0.75
2022-08-27T08:27:23.482Z,0.40
2022-08-27T08:30:12.756Z,1.15
2022-08-27T08:32:59.394Z,0.75
2022-08-27T08:35:48.807Z,0.57
2022-08-27T08:38:35.996Z,2.83
2022-08-27T08:41:32.578Z,0.30
2022-08-27T08:44:25.269Z,0.43
2022-08-27T08:47:14.372Z,0.70
2022-08-27T08:50:04.200Z,0.57
2022-08-27T08:52:54.443Z,1.07
2022-08-27T08:55:43.003Z,0.40
2022-08-27T08:58:34.471Z,0.80
2022-08-27T09:01:24.630Z,0.50
2022-08-27T09:04:13.119Z,0.52
2022-08-27T09:07:02.749Z,0.55
2022-08-27T09:09:52.233Z,0.60
2022-08-27T09:12:39.276Z,0.55
2022-08-27T09:15:28.903Z,0.90
2022-08-27T09:18:17.590Z,0.40
2022-08-27T09:21:10.473Z,1.00
2022-08-27T09:24:02.140Z,0.85
2022-08-27T09:26:49.322Z,0.68
2022-08-27T09:29:37.826Z,0.70
2022-08-27T09:32:26.108Z,0.70
2022-08-27T09:35:15.945Z,0.60
2022-08-27T09:38:04.488Z,0.50
2022-08-27T09:40:52.938Z,0.63
2022-08-27T09:43:43.730Z,0.60
2022-08-27T09:46:31.186Z,0.82
2022-08-27T09:49:18.862Z,0.90
2022-08-27T09:52:07.772Z,0.68
2022-08-27T09:54:56.498Z,0.50
2022-08-27T09:57:43.734Z,0.82
2022-08-27T10:00:35.780Z,1.17
2022-08-27T10:03:23.569Z,0.50
2022-08-27T10:06:11.465Z,0.60
2022-08-27T10:09:06.483Z,0.40
2022-08-27T10:11:58.883Z,0.50
2022-08-27T10:14:48.234Z,0.52
2022-08-27T10:17:40.864Z,0.50
2022-08-27T10:20:33.973Z,0.40
2022-08-27T10:23:24.288Z,1.00
2022-08-27T10:26:15.166Z,1.03
2022-08-27T10:29:08.553Z,0.43
2022-08-27T10:32:01.422Z,0.50
2022-08-27T10:34:55.028Z,0.88
2022-08-27T10:37:47.433Z,0.70
2022-08-27T10:40:36.348Z,0.50
2022-08-27T10:43:33.558Z,0.60
2022-08-27T10:46:32.340Z,0.65
2022-08-27T10:49:22.238Z,0.55
2022-08-27T10:52:14.598Z,0.32
2022-08-27T10:55:02.561Z,0.57
2022-08-27T10:58:08.958Z,1.38
2022-08-27T11:01:00.428Z,0.75
2022-08-27T11:03:49.994Z,0.63
2022-08-27T11:06:38.700Z,0.47
2022-08-27T11:09:31.601Z,0.70
2022-08-27T11:12:20.312Z,0.88
2022-08-27T11:15:12.992Z,0.70
2022-08-27T11:18:05.346Z,0.55
2022-08-27T11:20:54.932Z,1.30
2022-08-27T11:23:45.321Z,1.02
2022-08-27T11:26:33.523Z,0.73
2022-08-27T11:29:25.554Z,1.03
2022-08-27T11:32:15.220Z,0.47
2022-08-27T11:35:05.301Z,0.90
2022-08-27T11:38:02.194Z,0.60
2022-08-27T11:40:55.089Z,0.43
2022-08-27T11:43:42.264Z,0.45
2022-08-27T11:46:30.441Z,0.68
2022-08-27T11:49:26.553Z,0.40
2022-08-27T11:52:15.089Z,0.75
2022-08-27T11:55:12.997Z,0.88
2022-08-27T11:58:07.690Z,0.47
2022-08-27T12:00:55.033Z,0.68
2022-08-27T12:03:43.051Z,0.60
2022-08-27T12:06:29.759Z,0.40
2022-08-27T12:09:20.840Z,0.88
2022-08-27T12:12:10.110Z,0.40
2022-08-27T12:15:04.487Z,0.80
2022-08-27T12:17:58.290Z,1.13
2022-08-27T12:20:47.214Z,0.82
2022-08-27T12:23:44.572Z,0.55
2022-08-27T12:26:34.471Z,0.55
2022-08-27T12:29:31.188Z,0.47
2022-08-27T12:32:26.369Z,0.93
2022-08-27T12:35:15.652Z,0.38
2022-08-27T12:38:09.565Z,0.40
2022-08-27T12:41:03.641Z,0.50
2022-08-27T12:43:51.861Z,0.45
2022-08-27T12:46:40.217Z,0.80
2022-08-27T12:49:38.726Z,0.60
2022-08-27T12:52:37.928Z,0.50
2022-08-27T12:55:27.060Z,0.90
2022-08-27T12:58:15.910Z,0.38
2022-08-27T13:01:13.461Z,0.50
2022-08-27T13:04:01.252Z,0.20
2022-08-27T13:06:48.358Z,0.50
2022-08-27T13:09:36.066Z,0.70
2022-08-27T13:12:25.229Z,0.75
2022-08-27T13:15:14.457Z,0.40
2022-08-27T13:18:04.504Z,0.40
2022-08-27T13:20:53.095Z,0.30
2022-08-27T13:23:45.170Z,0.60
2022-08-27T13:26:33.980Z,0.63
2022-08-27T13:29:21.446Z,1.02
2022-08-27T13:32:08.455Z,0.40
2022-08-27T13:34:56.498Z,0.22
2022-08-27T13:37:45.607Z,0.30
2022-08-27T13:40:33.626Z,0.40
2022-08-27T13:43:21.009Z,0.70
2022-08-27T13:46:10.683Z,0.75
2022-08-27T13:48:58.611Z,0.40
2022-08-27T13:51:47.729Z,0.22
2022-08-27T13:54:35.692Z,0.70
2022-08-27T13:57:25.672Z,0.50
2022-08-27T14:00:15.906Z,0.50
2022-08-27T14:03:02.809Z,0.80
2022-08-27T14:05:49.776Z,0.70
2022-08-27T14:08:38.300Z,1.40
2022-08-27T14:11:27.333Z,0.57
2022-08-27T14:14:14.373Z,0.28
2022-08-27T14:17:02.206Z,0.50
2022-08-27T14:19:49.621Z,0.63
2022-08-27T14:22:37.313Z,0.57
2022-08-27T14:25:25.776Z,0.75
2022-08-27T14:28:12.625Z,0.50
2022-08-27T14:30:59.460Z,0.30
2022-08-27T14:33:47.572Z,0.50
2022-08-27T14:36:34.983Z,0.40
2022-08-27T14:39:22.974Z,0.70
2022-08-27T14:42:14.961Z,0.40
2022-08-27T14:45:02.163Z,0.40
2022-08-27T14:47:48.785Z,0.50
2022-08-27T14:50:35.473Z,0.10
2022-08-27T14:53:22.697Z,0.85
2022-08-27T14:56:10.153Z,0.60
2022-08-27T14:58:58.166Z,0.82
2022-08-27T15:01:45.147Z,0.38
2022-08-27T15:04:33.035Z,0.45
2022-08-27T15:07:20.713Z,0.25
2022-08-27T15:10:10.714Z,0.28
2022-08-27T15:12:57.957Z,0.80
2022-08-27T15:15:46.181Z,0.90
2022-08-27T15:18:33.048Z,0.38
2022-08-27T15:21:20.243Z,0.77
2022-08-27T15:24:09.516Z,0.50
2022-08-27T15:26:58.519Z,0.57
2022-08-27T15:29:47.201Z,0.40
2022-08-27T15:32:36.762Z,0.40
2022-08-27T15:35:26.476Z,0.98
2022-08-27T15:38:13.320Z,0.77
2022-08-27T15:41:00.344Z,0.40
2022-08-27T15:43:47.140Z,0.90
2022-08-27T15:46:34.101Z,0.40
2022-08-27T15:49:22.426Z,0.10
2022-08-27T15:52:09.786Z,0.28
2022-08-27T15:55:01.093Z,0.40
2022-08-27T15:57:49.994Z,0.20
2022-08-27T16:00:38.013Z,1.00
2022-08-27T16:03:28.188Z,0.65
2022-08-27T16:06:27.244Z,0.47
2022-08-27T16:09:14.069Z,0.70
2022-08-27T16:12:01.388Z,0.60
2022-08-27T16:14:48.058Z,0.80
2022-08-27T16:17:36.026Z,0.40
2022-08-27T16:20:24.622Z,0.50
2022-08-27T16:23:13.757Z,0.52
2022-08-27T16:26:01.230Z,0.50
2022-08-27T16:28:47.858Z,0.68
2022-08-27T16:31:35.246Z,1.25
2022-08-27T16:34:25.007Z,0.65
2022-08-27T16:37:11.984Z,0.50
2022-08-27T16:40:02.894Z,0.60
2022-08-27T16:42:51.008Z,0.50
2022-08-27T16:45:37.598Z,0.52
2022-08-27T16:48:42.394Z,0.30
2022-08-27T16:51:31.778Z,0.80
2022-08-27T16:54:19.756Z,0.55
2022-08-27T16:57:07.926Z,0.73
2022-08-27T16:59:55.736Z,0.60
2022-08-27T17:02:43.058Z,0.82
2022-08-27T17:05:36.981Z,0.60
2022-08-27T17:08:26.256Z,0.47
2022-08-27T17:11:14.742Z,0.47
2022-08-27T17:14:03.494Z,0.60
2022-08-27T17:16:53.762Z,0.45
2022-08-27T17:19:41.009Z,0.50
2022-08-27T17:22:27.933Z,0.35
2022-08-27T17:25:14.855Z,0.43
2022-08-27T17:28:01.569Z,0.40
2022-08-27T17:30:49.989Z,0.68
2022-08-27T17:33:38.887Z,0.50
2022-08-27T17:36:26.819Z,0.40
2022-08-27T17:39:14.541Z,0.63
2022-08-27T17:42:01.537Z,0.63
2022-08-27T17:44:48.942Z,0.88
2022-08-27T17:47:37.230Z,0.83
2022-08-27T17:50:23.933Z,0.73
2022-08-27T17:53:10.813Z,0.77
2022-08-27T17:55:57.366Z,0.60
2022-08-27T17:58:44.344Z,0.70
2022-08-27T18:01:32.856Z,0.60
2022-08-27T18:04:21.757Z,0.68
2022-08-27T18:07:08.498Z,0.68
2022-08-27T18:09:55.671Z,0.68
2022-08-27T18:12:42.819Z,0.90
2022-08-27T18:15:30.359Z,0.45
2022-08-27T18:18:17.422Z,0.77
2022-08-27T18:21:05.772Z,0.45
2022-08-27T18:23:54.885Z,0.63
2022-08-27T18:26:41.892Z,0.88
2022-08-27T18:29:28.577Z,0.63
2022-08-27T18:32:15.304Z,0.50
2022-08-27T18:35:08.767Z,0.80
2022-08-27T18:37:57.051Z,0.75
2022-08-27T18:40:46.825Z,0.70
2022-08-27T18:43:35.064Z,0.90
2022-08-27T18:46:22.136Z,0.87
2022-08-27T18:49:09.085Z,0.80
2022-08-27T18:51:56.393Z,0.65
2022-08-27T18:54:44.670Z,0.70
2022-08-27T18:57:31.236Z,0.93
2022-08-27T19:00:19.141Z,0.93
2022-08-27T19:03:06.257Z,0.68
2022-08-27T19:05:54.936Z,0.68
2022-08-27T19:08:43.025Z,0.70
2022-08-27T19:11:31.449Z,0.98
2022-08-27T19:14:18.226Z,1.40
2022-08-27T19:17:05.164Z,1.40
2022-08-27T19:19:51.895Z,0.95
2022-08-27T19:22:38.884Z,0.95
2022-08-27T19:25:26.279Z,1.50
2022-08-27T19:28:14.890Z,2.03
2022-08-27T19:31:01.570Z,1.95
2022-08-27T19:33:48.604Z,1.88
2022-08-27T19:36:37.491Z,1.20
2022-08-27T19:39:24.138Z,1.60
2022-08-27T19:42:11.088Z,1.90
2022-08-27T19:44:59.599Z,1.75
2022-08-27T19:47:46.535Z,1.73
2022-08-27T19:50:33.369Z,1.30
2022-08-27T19:53:20.348Z,1.67
2022-08-27T19:56:07.793Z,2.33
2022-08-27T19:58:57.708Z,1.77
2022-08-27T20:01:49.672Z,1.48
2022-08-27T20:04:47.671Z,1.48
2022-08-27T20:07:43.229Z,2.20
2022-08-27T20:10:36.064Z,2.10
2022-08-27T20:13:23.866Z,1.52
2022-08-27T20:16:13.623Z,1.40
2022-08-27T20:19:02.565Z,1.60
2022-08-27T20:21:49.441Z,1.33
2022-08-27T20:24:37.274Z,2.05
2022-08-27T20:27:24.305Z,1.20
2022-08-27T20:30:12.280Z,1.63
2022-08-27T20:32:59.968Z,1.60
2022-08-27T20:35:47.965Z,1.95
2022-08-27T20:38:34.828Z,1.38
2022-08-27T20:41:21.979Z,1.27
2022-08-27T20:44:08.962Z,1.58
2022-08-27T20:46:59.084Z,1.25
2022-08-27T20:49:46.158Z,1.92
2022-08-27T20:52:34.792Z,1.58
2022-08-27T20:55:22.693Z,1.63
2022-08-27T20:58:32.517Z,2.50
2022-08-27T21:01:19.587Z,1.70
2022-08-27T21:04:06.770Z,1.23
2022-08-27T21:06:53.401Z,1.25
2022-08-27T21:09:56.225Z,1.77
2022-08-27T21:12:45.169Z,1.85
2022-08-27T21:15:32.198Z,1.35
2022-08-27T21:18:19.865Z,1.98
2022-08-27T21:21:11.221Z,1.50
2022-08-27T21:23:58.024Z,1.90
2022-08-27T21:26:46.783Z,1.45
2022-08-27T21:29:33.729Z,2.25
2022-08-27T21:32:20.749Z,1.50
2022-08-27T21:35:07.598Z,1.63
2022-08-27T21:37:54.314Z,1.48
2022-08-27T21:40:41.284Z,1.98
2022-08-27T21:43:29.954Z,1.20
2022-08-27T21:46:17.303Z,1.38
2022-08-27T21:49:04.126Z,1.45
2022-08-27T21:51:51.155Z,2.28
2022-08-27T21:54:39.537Z,2.13
2022-08-27T21:57:26.470Z,1.20
2022-08-27T22:00:23.082Z,1.85
2022-08-27T22:03:11.048Z,2.42
2022-08-27T22:05:57.774Z,1.40
2022-08-27T22:08:44.481Z,1.35
2022-08-27T22:11:31.249Z,1.45
2022-08-27T22:14:18.152Z,1.73
2022-08-27T22:17:06.201Z,1.80
2022-08-27T22:19:53.310Z,1.70
2022-08-27T22:22:40.515Z,2.20
2022-08-27T22:25:27.937Z,2.20
2022-08-27T22:28:15.416Z,1.70
2022-08-27T22:31:02.471Z,1.65
2022-08-27T22:33:50.956Z,1.38
2022-08-27T22:36:40.442Z,1.50
2022-08-27T22:39:27.230Z,1.38
2022-08-27T22:42:16.232Z,1.50
2022-08-27T22:45:05.496Z,2.17
2022-08-27T22:47:52.542Z,1.42
2022-08-27T22:50:40.818Z,1.60
2022-08-27T22:53:27.848Z,2.17
2022-08-27T22:56:14.641Z,1.38
2022-08-27T22:59:01.436Z,1.50
2022-08-27T23:01:48.597Z,2.00
2022-08-27T23:04:54.124Z,2.17
2022-08-27T23:07:43.570Z,1.60
2022-08-27T23:10:30.171Z,1.05
2022-08-27T23:13:16.795Z,1.58
2022-08-27T23:16:03.875Z,1.02
2022-08-27T23:18:50.717Z,1.83
2022-08-27T23:21:37.284Z,1.42
2022-08-27T23:24:25.624Z,1.57
2022-08-27T23:27:29.776Z,2.17
2022-08-27T23:30:18.271Z,1.80
2022-08-27T23:33:05.529Z,1.67
2022-08-27T23:35:52.384Z,2.00
2022-08-27T23:38:39.261Z,1.08
2022-08-27T23:41:27.446Z,1.45
2022-08-27T23:44:14.408Z,1.70
2022-08-27T23:47:01.590Z,1.67
2022-08-27T23:49:48.365Z,1.08
2022-08-27T23:52:35.776Z,1.67
2022-08-27T23:55:23.153Z,1.38
2022-08-27T23:58:11.755Z,1.88
